Time;durP1;ratioP1;P1;durP2;ratioP2;P2;SDS_P1;SDS_P2;PMS_P1;PMS_P2;Temp;Humidity;BMP_temperature;BMP_pressure;BME280_temperature;BME280_humidity;BME280_pressure;Samples;Min_cycle;Max_cycle;Signal;HPM_P1;HPM_P2
2023/09/01 00:02:04;;;;;;;2.10;1.40;;;;;;;;;;4983355;28;20062;-74
2023/09/01 00:04:30;;;;;;;1.45;1.35;;;;;;;;;;4991406;28;20041;-73
2023/09/01 00:06:56;;;;;;;1.70;1.25;;;;;;;;;;5015335;28;20498;-74
2023/09/01 00:09:21;;;;;;;1.40;1.30;;;;;;;;;;4987594;28;20129;-74
2023/09/01 00:11:47;;;;;;;1.58;1.27;;;;;;;;;;5010222;28;20054;-74
2023/09/01 00:14:12;;;;;;;1.60;1.30;;;;;;;;;;5003429;28;20045;-74
2023/09/01 00:16:37;;;;;;;1.48;1.23;;;;;;;;;;5002359;28;20132;-74
2023/09/01 00:19:03;;;;;;;1.67;1.10;;;;;;;;;;5019718;28;20117;-74
2023/09/01 00:21:28;;;;;;;58.03;6.20;;;;;;;;;;5019833;28;20030;-74
2023/09/01 00:23:54;;;;;;;2.35;1.80;;;;;;;;;;5009903;28;20050;-74
2023/09/01 00:26:19;;;;;;;1.10;1.00;;;;;;;;;;5002313;28;20069;-74
2023/09/01 00:28:44;;;;;;;1.10;1.00;;;;;;;;;;5020666;28;20152;-74
2023/09/01 00:31:10;;;;;;;0.80;0.80;;;;;;;;;;4999185;28;20498;-74
2023/09/01 00:33:35;;;;;;;0.90;0.80;;;;;;;;;;5013456;28;20045;-74
2023/09/01 00:36:00;;;;;;;1.13;1.02;;;;;;;;;;5000914;28;20553;-74
2023/09/01 00:38:26;;;;;;;2.25;1.02;;;;;;;;;;5011165;28;20041;-74
2023/09/01 00:40:52;;;;;;;1.73;1.50;;;;;;;;;;5013783;28;20435;-73
2023/09/01 00:43:17;;;;;;;2.85;1.00;;;;;;;;;;5014249;28;20038;-74
2023/09/01 00:45:43;;;;;;;2.17;1.38;;;;;;;;;;4997690;28;20098;-74
2023/09/01 00:48:11;;;;;;;2.65;2.08;;;;;;;;;;4989859;28;20456;-74
2023/09/01 00:50:36;;;;;;;1.30;0.98;;;;;;;;;;5015010;28;20049;-74
2023/09/01 00:53:05;;;;;;;2.28;1.70;;;;;;;;;;5012608;28;20034;-73
2023/09/01 00:55:32;;;;;;;2.33;2.13;;;;;;;;;;5014844;28;20390;-73
2023/09/01 00:58:00;;;;;;;1.95;1.75;;;;;;;;;;4983297;28;20040;-74
2023/09/01 01:00:25;;;;;;;1.75;1.63;;;;;;;;;;5011542;28;20464;-73
2023/09/01 01:02:51;;;;;;;3.17;1.60;;;;;;;;;;5016961;28;20037;-73
2023/09/01 01:05:23;;;;;;;1.38;1.27;;;;;;;;;;5016506;28;20041;-73
2023/09/01 01:08:05;;;;;;;1.05;0.95;;;;;;;;;;5005394;28;20022;-73
2023/09/01 01:10:49;;;;;;;1.65;1.45;;;;;;;;;;4997118;28;20030;-73
2023/09/01 01:13:20;;;;;;;3.65;1.33;;;;;;;;;;5011887;28;20668;-73
2023/09/01 01:15:47;;;;;;;1.88;1.48;;;;;;;;;;5015091;28;20091;-74
2023/09/01 01:18:15;;;;;;;3.08;1.85;;;;;;;;;;5002878;28;20037;-74
2023/09/01 01:20:45;;;;;;;1.80;1.20;;;;;;;;;;5007403;28;20045;-74
2023/09/01 01:23:11;;;;;;;1.77;1.67;;;;;;;;;;4998554;28;20503;-75
2023/09/01 01:25:43;;;;;;;1.80;1.70;;;;;;;;;;5014892;28;20491;-75
2023/09/01 01:28:09;;;;;;;2.20;1.77;;;;;;;;;;4998153;28;20041;-75
2023/09/01 01:30:36;;;;;;;1.35;1.25;;;;;;;;;;5010088;28;20049;-75
2023/09/01 01:33:02;;;;;;;1.00;0.90;;;;;;;;;;5006828;28;20025;-74
2023/09/01 01:36:09;;;;;;;1.00;0.90;;;;;;;;;;4989674;28;20048;-75
2023/09/01 01:38:42;;;;;;;2.42;1.63;;;;;;;;;;5000846;28;20172;-75
2023/09/01 01:41:10;;;;;;;1.38;1.20;;;;;;;;;;5002079;28;20717;-74
2023/09/01 01:43:38;;;;;;;1.83;1.45;;;;;;;;;;4989179;28;20068;-75
2023/09/01 01:46:04;;;;;;;2.03;1.65;;;;;;;;;;4999857;28;20502;-74
2023/09/01 01:48:30;;;;;;;2.55;1.60;;;;;;;;;;4986490;28;20041;-75
2023/09/01 01:50:55;;;;;;;2.53;1.10;;;;;;;;;;5007681;28;20065;-75
2023/09/01 01:53:22;;;;;;;2.42;2.17;;;;;;;;;;5000012;28;20116;-74
2023/09/01 01:55:48;;;;;;;1.85;1.45;;;;;;;;;;4995111;28;20034;-74
2023/09/01 01:58:13;;;;;;;2.50;1.40;;;;;;;;;;5004758;28;20128;-74
2023/09/01 02:00:39;;;;;;;1.70;1.60;;;;;;;;;;5014162;28;20053;-75
2023/09/01 02:03:04;;;;;;;2.03;1.90;;;;;;;;;;4993365;28;20038;-75
2023/09/01 02:05:30;;;;;;;2.08;1.88;;;;;;;;;;4991168;28;20538;-74
2023/09/01 02:07:55;;;;;;;1.60;1.48;;;;;;;;;;5015701;28;20668;-74
2023/09/01 02:10:20;;;;;;;2.42;2.22;;;;;;;;;;4999141;28;20045;-75
2023/09/01 02:12:47;;;;;;;4.15;3.38;;;;;;;;;;5004389;28;20044;-74
2023/09/01 02:15:12;;;;;;;2.70;2.50;;;;;;;;;;4999326;28;20046;-74
2023/09/01 02:17:38;;;;;;;5.32;3.30;;;;;;;;;;5010909;28;20049;-74
2023/09/01 02:20:16;;;;;;;5.15;3.67;;;;;;;;;;5014701;28;20045;-74
2023/09/01 02:22:45;;;;;;;3.42;2.45;;;;;;;;;;5009839;28;20040;-74
2023/09/01 02:25:12;;;;;;;5.63;2.92;;;;;;;;;;5000817;28;20030;-75
2023/09/01 02:27:39;;;;;;;3.75;2.67;;;;;;;;;;5002412;28;20091;-75
2023/09/01 02:30:05;;;;;;;4.13;3.38;;;;;;;;;;5012343;28;20651;-75
2023/09/01 02:32:30;;;;;;;4.28;3.47;;;;;;;;;;5014820;28;20425;-75
2023/09/01 02:34:57;;;;;;;3.53;3.17;;;;;;;;;;5014954;28;20045;-74
2023/09/01 02:37:22;;;;;;;4.85;4.22;;;;;;;;;;4999390;28;20037;-74
2023/09/01 02:39:48;;;;;;;6.57;4.60;;;;;;;;;;5000038;28;20041;-75
2023/09/01 02:42:13;;;;;;;4.43;3.95;;;;;;;;;;5015476;28;20618;-74
2023/09/01 02:44:38;;;;;;;5.45;4.18;;;;;;;;;;5011662;28;20164;-75
2023/09/01 02:47:04;;;;;;;4.50;3.85;;;;;;;;;;5003088;28;20044;-75
2023/09/01 02:49:29;;;;;;;4.35;3.47;;;;;;;;;;5002449;28;20030;-75
2023/09/01 02:51:56;;;;;;;7.25;4.40;;;;;;;;;;5009802;28;20048;-75
2023/09/01 02:54:21;;;;;;;4.03;3.25;;;;;;;;;;5004199;28;20080;-75
2023/09/01 02:56:47;;;;;;;10.95;4.00;;;;;;;;;;5013693;28;20532;-75
2023/09/01 02:59:12;;;;;;;4.57;3.60;;;;;;;;;;4997231;28;20034;-76
2023/09/01 03:01:38;;;;;;;3.53;3.13;;;;;;;;;;5006728;28;20038;-74
2023/09/01 03:04:06;;;;;;;4.38;2.88;;;;;;;;;;4998545;28;20049;-74
2023/09/01 03:06:33;;;;;;;2.90;2.38;;;;;;;;;;5009121;28;20049;-74
2023/09/01 03:08:59;;;;;;;3.45;3.15;;;;;;;;;;4993464;28;20160;-74
2023/09/01 03:11:24;;;;;;;2.50;2.30;;;;;;;;;;5002196;28;20116;-74
2023/09/01 03:13:49;;;;;;;2.80;2.60;;;;;;;;;;5014581;28;20049;-75
2023/09/01 03:16:15;;;;;;;2.97;2.78;;;;;;;;;;5001248;28;20040;-75
2023/09/01 03:18:41;;;;;;;3.40;3.10;;;;;;;;;;4998071;28;20766;-74
2023/09/01 03:21:11;;;;;;;3.00;2.80;;;;;;;;;;5002001;28;20069;-75
2023/09/01 03:23:36;;;;;;;3.00;2.80;;;;;;;;;;5000231;28;20650;-75
2023/09/01 03:26:03;;;;;;;2.97;2.70;;;;;;;;;;4984070;28;20038;-75
2023/09/01 03:28:29;;;;;;;2.47;2.28;;;;;;;;;;4992703;28;20038;-75
2023/09/01 03:30:54;;;;;;;4.07;2.80;;;;;;;;;;4993671;28;20045;-75
2023/09/01 03:33:19;;;;;;;3.33;2.85;;;;;;;;;;4998771;28;20530;-75
2023/09/01 03:35:45;;;;;;;3.15;2.85;;;;;;;;;;5002464;28;20064;-75
2023/09/01 03:38:10;;;;;;;1.40;1.30;;;;;;;;;;5005780;28;20053;-74
2023/09/01 03:40:36;;;;;;;1.88;1.20;;;;;;;;;;5014439;28;20176;-74
2023/09/01 03:43:02;;;;;;;2.50;2.30;;;;;;;;;;4994349;28;20038;-74
2023/09/01 03:45:28;;;;;;;3.00;2.05;;;;;;;;;;5002424;28;20550;-74
2023/09/01 03:47:53;;;;;;;2.70;2.50;;;;;;;;;;4995661;23;20141;-72
2023/09/01 03:50:18;;;;;;;2.75;2.55;;;;;;;;;;4946017;28;20082;-72
2023/09/01 03:52:44;;;;;;;3.22;2.92;;;;;;;;;;4962749;28;20541;-71
2023/09/01 03:55:09;;;;;;;3.00;2.80;;;;;;;;;;4962377;28;20098;-71
2023/09/01 03:57:34;;;;;;;1.30;1.20;;;;;;;;;;4963442;28;20051;-71
2023/09/01 04:00:00;;;;;;;2.63;2.42;;;;;;;;;;4960772;28;20027;-71
2023/09/01 04:02:25;;;;;;;2.65;2.45;;;;;;;;;;4962134;28;20042;-71
2023/09/01 04:04:50;;;;;;;3.00;2.78;;;;;;;;;;4953363;28;20069;-71
2023/09/01 04:07:16;;;;;;;3.08;2.88;;;;;;;;;;4970323;28;20106;-71
2023/09/01 04:09:41;;;;;;;2.67;2.47;;;;;;;;;;4972182;28;20039;-71
2023/09/01 04:12:07;;;;;;;2.78;2.58;;;;;;;;;;4978552;28;20561;-71
2023/09/01 04:14:32;;;;;;;3.35;3.05;;;;;;;;;;4967674;28;20137;-71
2023/09/01 04:16:57;;;;;;;3.20;2.90;;;;;;;;;;4958671;28;20179;-71
2023/09/01 04:19:23;;;;;;;1.70;1.60;;;;;;;;;;4959960;28;20054;-71
2023/09/01 04:21:48;;;;;;;2.65;2.45;;;;;;;;;;4972939;28;20042;-71
2023/09/01 04:24:13;;;;;;;2.60;2.40;;;;;;;;;;4967756;28;20034;-71
2023/09/01 04:26:39;;;;;;;2.85;2.20;;;;;;;;;;4964092;28;20406;-72
2023/09/01 04:29:04;;;;;;;2.17;1.92;;;;;;;;;;4966989;28;20585;-71
2023/09/01 04:31:30;;;;;;;2.95;2.67;;;;;;;;;;4970947;28;20140;-71
2023/09/01 04:33:56;;;;;;;2.85;2.50;;;;;;;;;;4944011;28;20043;-71
2023/09/01 04:36:22;;;;;;;2.70;2.50;;;;;;;;;;4970403;28;20038;-71
2023/09/01 04:38:48;;;;;;;3.00;2.80;;;;;;;;;;4960877;28;20050;-71
2023/09/01 04:41:13;;;;;;;2.03;1.92;;;;;;;;;;4967251;28;20632;-72
2023/09/01 04:43:39;;;;;;;1.90;1.80;;;;;;;;;;4974856;28;20044;-71
2023/09/01 04:46:04;;;;;;;2.50;2.30;;;;;;;;;;4968919;28;20495;-71
2023/09/01 04:48:30;;;;;;;2.38;2.17;;;;;;;;;;4958303;28;20158;-71
2023/09/01 04:50:56;;;;;;;2.42;2.25;;;;;;;;;;4965726;28;20054;-71
2023/09/01 04:53:21;;;;;;;2.85;2.10;;;;;;;;;;4969994;28;20062;-71
2023/09/01 04:55:47;;;;;;;1.40;1.30;;;;;;;;;;4968796;28;20526;-71
2023/09/01 04:58:13;;;;;;;2.72;2.53;;;;;;;;;;4970156;28;20038;-71
2023/09/01 05:00:39;;;;;;;2.40;2.20;;;;;;;;;;4973890;28;20635;-71
2023/09/01 05:03:04;;;;;;;2.65;2.45;;;;;;;;;;4965766;28;20065;-71
2023/09/01 05:05:30;;;;;;;2.72;2.53;;;;;;;;;;4967845;28;20054;-71
2023/09/01 05:07:56;;;;;;;2.40;2.20;;;;;;;;;;4953663;28;20460;-74
2023/09/01 05:10:21;;;;;;;1.80;1.70;;;;;;;;;;4951528;28;20057;-72
2023/09/01 05:12:47;;;;;;;2.08;1.98;;;;;;;;;;4950770;28;20050;-71
2023/09/01 05:15:12;;;;;;;2.88;2.60;;;;;;;;;;4947520;28;20066;-71
2023/09/01 05:17:38;;;;;;;2.83;2.60;;;;;;;;;;4934625;28;20047;-72
2023/09/01 05:20:07;;;;;;;5.00;2.95;;;;;;;;;;4944928;28;20127;-71
2023/09/01 05:22:35;;;;;;;3.08;2.78;;;;;;;;;;4941161;28;20551;-71
2023/09/01 05:25:01;;;;;;;2.78;2.53;;;;;;;;;;4944767;28;20031;-70
2023/09/01 05:27:28;;;;;;;2.78;2.38;;;;;;;;;;4939832;28;20031;-71
2023/09/01 05:29:53;;;;;;;3.10;2.75;;;;;;;;;;4955279;28;20078;-70
2023/09/01 05:32:20;;;;;;;3.33;2.92;;;;;;;;;;4935500;28;20047;-70
2023/09/01 05:34:46;;;;;;;3.53;3.10;;;;;;;;;;4945461;28;20613;-70
2023/09/01 05:37:14;;;;;;;2.95;2.38;;;;;;;;;;4938296;28;20043;-70
2023/09/01 05:39:40;;;;;;;4.40;3.95;;;;;;;;;;4943960;28;20061;-70
2023/09/01 05:42:07;;;;;;;5.32;3.30;;;;;;;;;;4949141;28;20568;-70
2023/09/01 05:44:33;;;;;;;1.55;1.45;;;;;;;;;;4943334;28;20042;-70
2023/09/01 05:46:58;;;;;;;2.47;2.28;;;;;;;;;;4939196;28;20976;-70
2023/09/01 05:49:24;;;;;;;5.40;2.08;;;;;;;;;;4948208;28;20120;-70
2023/09/01 05:51:50;;;;;;;2.35;2.15;;;;;;;;;;4951740;28;20070;-70
2023/09/01 05:54:19;;;;;;;2.65;2.00;;;;;;;;;;4926430;28;20586;-70
2023/09/01 05:56:44;;;;;;;0.80;0.80;;;;;;;;;;4944631;28;20042;-70
2023/09/01 05:59:10;;;;;;;1.10;1.02;;;;;;;;;;4947149;28;20430;-70
2023/09/01 06:01:36;;;;;;;2.83;2.40;;;;;;;;;;4947365;28;20043;-70
2023/09/01 06:04:04;;;;;;;5.88;2.47;;;;;;;;;;4947718;28;20054;-70
2023/09/01 06:06:33;;;;;;;3.70;2.60;;;;;;;;;;4925263;28;20047;-70
2023/09/01 06:08:59;;;;;;;2.47;2.28;;;;;;;;;;4945227;28;20538;-71
2023/09/01 06:11:29;;;;;;;2.53;2.33;;;;;;;;;;4948406;28;20039;-71
2023/09/01 06:13:55;;;;;;;2.80;2.53;;;;;;;;;;4942691;28;20069;-71
2023/09/01 06:16:20;;;;;;;2.58;2.38;;;;;;;;;;4944421;28;20071;-71
2023/09/01 06:18:46;;;;;;;2.85;2.58;;;;;;;;;;4944105;28;20071;-70
2023/09/01 06:21:15;;;;;;;2.65;2.45;;;;;;;;;;4953408;28;20061;-70
2023/09/01 06:23:44;;;;;;;3.08;2.60;;;;;;;;;;4950986;28;20074;-71
2023/09/01 06:26:13;;;;;;;3.40;3.10;;;;;;;;;;4943148;28;20066;-71
2023/09/01 06:28:41;;;;;;;4.43;3.30;;;;;;;;;;4936719;28;20159;-71
2023/09/01 06:31:09;;;;;;;4.07;3.53;;;;;;;;;;4946919;28;20046;-71
2023/09/01 06:33:40;;;;;;;4.43;3.70;;;;;;;;;;4940135;28;20103;-71
2023/09/01 06:36:05;;;;;;;3.47;3.08;;;;;;;;;;4953580;28;20049;-71
2023/09/01 06:38:31;;;;;;;3.55;3.25;;;;;;;;;;4939299;28;20039;-71
2023/09/01 06:40:56;;;;;;;4.45;3.70;;;;;;;;;;4919099;28;20242;-71
2023/09/01 06:43:21;;;;;;;3.22;2.92;;;;;;;;;;4942947;28;20035;-71
2023/09/01 06:45:47;;;;;;;4.30;3.33;;;;;;;;;;4937241;28;20686;-71
2023/09/01 06:48:12;;;;;;;3.83;3.53;;;;;;;;;;4931151;28;20098;-71
2023/09/01 06:50:38;;;;;;;3.42;2.97;;;;;;;;;;4938659;28;20035;-71
2023/09/01 06:53:04;;;;;;;1.45;1.35;;;;;;;;;;4941941;28;20031;-71
2023/09/01 06:55:30;;;;;;;2.10;1.90;;;;;;;;;;4935408;28;20039;-71
2023/09/01 06:57:55;;;;;;;4.00;3.70;;;;;;;;;;4937321;28;20560;-71
2023/09/01 07:00:21;;;;;;;3.20;2.90;;;;;;;;;;4936523;28;20058;-71
2023/09/01 07:02:46;;;;;;;3.78;3.47;;;;;;;;;;4951425;28;20050;-71
2023/09/01 07:05:11;;;;;;;1.10;1.00;;;;;;;;;;4945312;28;20034;-71
2023/09/01 07:07:37;;;;;;;3.30;3.00;;;;;;;;;;4942234;28;20050;-71
2023/09/01 07:10:03;;;;;;;4.70;3.95;;;;;;;;;;4915474;28;20497;-71
2023/09/01 07:12:28;;;;;;;4.47;3.80;;;;;;;;;;4942768;28;20077;-71
2023/09/01 07:14:54;;;;;;;4.70;3.95;;;;;;;;;;4946523;28;20043;-71
2023/09/01 07:17:23;;;;;;;4.30;3.90;;;;;;;;;;4946705;28;20431;-71
2023/09/01 07:19:49;;;;;;;4.60;3.45;;;;;;;;;;4937108;28;20042;-71
2023/09/01 07:22:14;;;;;;;6.85;4.70;;;;;;;;;;4933040;28;20030;-71
2023/09/01 07:24:40;;;;;;;6.43;4.15;;;;;;;;;;4945331;28;20066;-71
2023/09/01 07:27:06;;;;;;;5.30;4.15;;;;;;;;;;4937532;28;20028;-71
2023/09/01 07:29:34;;;;;;;4.78;3.42;;;;;;;;;;4941707;28;20538;-71
2023/09/01 07:32:00;;;;;;;5.65;3.97;;;;;;;;;;4942618;28;20750;-71
2023/09/01 07:34:26;;;;;;;4.75;4.03;;;;;;;;;;4947239;28;20063;-71
2023/09/01 07:36:52;;;;;;;7.75;4.53;;;;;;;;;;4933186;28;20122;-71
2023/09/01 07:39:17;;;;;;;6.03;4.47;;;;;;;;;;4938808;28;20115;-71
2023/09/01 07:41:43;;;;;;;3.90;3.55;;;;;;;;;;4948734;28;20042;-71
2023/09/01 07:44:08;;;;;;;3.97;2.85;;;;;;;;;;4947459;28;20059;-71
2023/09/01 07:46:34;;;;;;;5.90;4.10;;;;;;;;;;4930972;28;20043;-71
2023/09/01 07:49:00;;;;;;;7.13;4.18;;;;;;;;;;4940367;28;20035;-71
2023/09/01 07:51:25;;;;;;;4.65;3.75;;;;;;;;;;4933674;28;20037;-71
2023/09/01 07:53:50;;;;;;;4.10;3.58;;;;;;;;;;4939158;28;20722;-71
2023/09/01 07:56:16;;;;;;;6.32;4.53;;;;;;;;;;4942056;28;20035;-71
2023/09/01 07:58:41;;;;;;;5.20;4.65;;;;;;;;;;4943013;28;20614;-71
2023/09/01 08:01:07;;;;;;;6.20;4.57;;;;;;;;;;4944732;28;20043;-71
2023/09/01 08:03:32;;;;;;;6.18;4.43;;;;;;;;;;4945419;28;20047;-71
2023/09/01 08:05:59;;;;;;;3.30;2.92;;;;;;;;;;4932500;28;20214;-71
2023/09/01 08:08:24;;;;;;;6.43;5.03;;;;;;;;;;4948497;28;20051;-71
2023/09/01 08:10:51;;;;;;;6.35;3.90;;;;;;;;;;4940762;28;20035;-71
2023/09/01 08:13:17;;;;;;;7.07;4.85;;;;;;;;;;4939698;28;20031;-71
2023/09/01 08:15:42;;;;;;;5.78;4.47;;;;;;;;;;4943779;28;20106;-71
2023/09/01 08:18:08;;;;;;;2.20;1.70;;;;;;;;;;4943566;28;20046;-71
2023/09/01 08:20:33;;;;;;;4.40;3.33;;;;;;;;;;4931576;28;20071;-71
2023/09/01 08:22:59;;;;;;;4.50;3.13;;;;;;;;;;4941884;28;20067;-71
2023/09/01 08:25:24;;;;;;;7.88;4.85;;;;;;;;;;4938988;28;20122;-71
2023/09/01 08:27:50;;;;;;;7.10;4.20;;;;;;;;;;4946840;28;20126;-71
2023/09/01 08:30:15;;;;;;;8.13;4.38;;;;;;;;;;4949906;28;20043;-71
2023/09/01 08:32:42;;;;;;;5.97;3.85;;;;;;;;;;4943895;28;20606;-71
2023/09/01 08:35:07;;;;;;;5.90;4.25;;;;;;;;;;4951984;28;20078;-71
2023/09/01 08:37:33;;;;;;;4.43;3.10;;;;;;;;;;4961577;28;20062;-71
2023/09/01 08:39:58;;;;;;;5.60;3.53;;;;;;;;;;4967601;28;20045;-71
2023/09/01 08:42:25;;;;;;;3.42;2.72;;;;;;;;;;4964433;28;20070;-71
2023/09/01 08:44:52;;;;;;;5.15;3.08;;;;;;;;;;4965473;28;20042;-71
2023/09/01 08:47:23;;;;;;;4.57;2.60;;;;;;;;;;4952086;28;20070;-71
2023/09/01 08:49:49;;;;;;;3.15;2.38;;;;;;;;;;4964198;28;20038;-71
2023/09/01 08:52:18;;;;;;;3.53;2.47;;;;;;;;;;4967374;28;20046;-71
2023/09/01 08:54:45;;;;;;;1.65;1.55;;;;;;;;;;4961175;28;20141;-71
2023/09/01 08:57:10;;;;;;;7.00;3.45;;;;;;;;;;4963315;28;20041;-71
2023/09/01 08:59:37;;;;;;;6.80;3.00;;;;;;;;;;4963773;28;20035;-71
2023/09/01 09:02:05;;;;;;;3.80;1.70;;;;;;;;;;4949521;28;20427;-71
2023/09/01 09:04:31;;;;;;;4.88;2.47;;;;;;;;;;4964771;28;20043;-71
2023/09/01 09:07:12;;;;;;;3.78;2.45;;;;;;;;;;4960362;28;20030;-71
2023/09/01 09:09:59;;;;;;;4.38;2.50;;;;;;;;;;4963986;28;20133;-71
2023/09/01 09:12:41;;;;;;;1.10;1.00;;;;;;;;;;4952910;28;20041;-72
2023/09/01 09:15:07;;;;;;;4.35;2.05;;;;;;;;;;4964752;28;20045;-72
2023/09/01 09:17:44;;;;;;;2.35;1.85;;;;;;;;;;4964378;28;20042;-72
2023/09/01 09:20:12;;;;;;;2.50;1.60;;;;;;;;;;4959505;28;20042;-72
2023/09/01 09:22:55;;;;;;;1.33;1.13;;;;;;;;;;4934351;28;20046;-72
2023/09/01 09:25:30;;;;;;;0.80;0.80;;;;;;;;;;4951874;28;20180;-72
2023/09/01 09:28:12;;;;;;;5.95;1.55;;;;;;;;;;4944255;28;20042;-71
2023/09/01 09:30:48;;;;;;;4.30;1.90;;;;;;;;;;4952988;28;20098;-71
2023/09/01 09:33:13;;;;;;;2.03;1.55;;;;;;;;;;4958529;28;20047;-72
2023/09/01 09:35:49;;;;;;;2.70;2.08;;;;;;;;;;4966442;28;20391;-71
2023/09/01 09:38:14;;;;;;;1.00;0.93;;;;;;;;;;4964711;28;20082;-71
2023/09/01 09:40:40;;;;;;;1.75;1.63;;;;;;;;;;4964615;28;20549;-72
2023/09/01 09:43:08;;;;;;;1.95;1.67;;;;;;;;;;4962629;28;20061;-71
2023/09/01 09:45:34;;;;;;;2.65;1.23;;;;;;;;;;4958855;28;20499;-72
2023/09/01 09:48:01;;;;;;;2.92;2.03;;;;;;;;;;4955739;28;20138;-71
2023/09/01 09:50:27;;;;;;;3.35;1.67;;;;;;;;;;4958418;28;20047;-72
2023/09/01 09:52:59;;;;;;;3.22;1.80;;;;;;;;;;4960286;28;20042;-71
2023/09/01 09:55:25;;;;;;;2.33;1.48;;;;;;;;;;4959045;28;20122;-71
2023/09/01 09:57:54;;;;;;;2.72;1.45;;;;;;;;;;4964243;28;20462;-72
2023/09/01 10:00:20;;;;;;;1.90;1.52;;;;;;;;;;4950943;28;20046;-72
2023/09/01 10:02:53;;;;;;;3.25;1.73;;;;;;;;;;4960330;28;20421;-72
2023/09/01 10:05:22;;;;;;;1.90;1.33;;;;;;;;;;4960033;28;20508;-71
2023/09/01 10:07:47;;;;;;;2.75;1.90;;;;;;;;;;4968917;28;20038;-71
2023/09/01 10:10:13;;;;;;;1.40;1.30;;;;;;;;;;4961118;28;20121;-71
2023/09/01 10:12:40;;;;;;;2.90;1.35;;;;;;;;;;4950269;28;20039;-71
2023/09/01 10:15:06;;;;;;;1.83;1.17;;;;;;;;;;4962590;28;20035;-71
2023/09/01 10:17:33;;;;;;;1.40;1.30;;;;;;;;;;4964321;28;21878;-71
2023/09/01 10:20:00;;;;;;;1.17;0.98;;;;;;;;;;4959145;28;20231;-71
2023/09/01 10:22:26;;;;;;;1.83;1.30;;;;;;;;;;4960315;28;20567;-71
2023/09/01 10:25:10;;;;;;;1.70;1.10;;;;;;;;;;4959211;28;20034;-71
2023/09/01 10:27:36;;;;;;;3.72;1.00;;;;;;;;;;4933606;28;20044;-71
2023/09/01 10:30:22;;;;;;;1.52;1.05;;;;;;;;;;4966499;28;20034;-71
2023/09/01 10:32:47;;;;;;;1.30;0.95;;;;;;;;;;4960731;28;20125;-71
2023/09/01 10:35:33;;;;;;;1.00;0.95;;;;;;;;;;4957223;28;20127;-71
2023/09/01 10:38:17;;;;;;;3.72;1.00;;;;;;;;;;4949030;28;20636;-72
2023/09/01 10:40:47;;;;;;;2.53;1.17;;;;;;;;;;4964194;28;20125;-71
2023/09/01 10:43:33;;;;;;;1.30;1.20;;;;;;;;;;4959861;28;20617;-71
2023/09/01 10:46:16;;;;;;;1.65;1.20;;;;;;;;;;4961323;28;20166;-71
2023/09/01 10:48:54;;;;;;;0.85;0.85;;;;;;;;;;4962327;22;20070;-75
2023/09/01 10:51:24;;;;;;;1.10;1.10;;;;;;;;;;4956430;28;20439;-72
2023/09/01 10:53:53;;;;;;;0.93;0.90;;;;;;;;;;4961079;28;20038;-72
2023/09/01 10:56:20;;;;;;;0.98;0.98;;;;;;;;;;4947745;28;20046;-73
2023/09/01 10:58:52;;;;;;;1.45;0.95;;;;;;;;;;4952359;28;20035;-72
2023/09/01 11:01:23;;;;;;;2.00;1.10;;;;;;;;;;4948642;28;20050;-74
2023/09/01 11:03:48;;;;;;;1.20;1.02;;;;;;;;;;4957695;28;20164;-72
2023/09/01 11:06:14;;;;;;;2.17;1.20;;;;;;;;;;4956653;28;20039;-72
2023/09/01 11:08:39;;;;;;;1.17;1.00;;;;;;;;;;4959127;28;20039;-72
2023/09/01 11:11:09;;;;;;;1.40;1.15;;;;;;;;;;4954810;28;20043;-72
2023/09/01 11:13:35;;;;;;;1.27;1.10;;;;;;;;;;4957054;28;20524;-72
2023/09/01 11:16:08;;;;;;;1.10;1.00;;;;;;;;;;4945220;28;20043;-73
2023/09/01 11:18:34;;;;;;;2.22;1.10;;;;;;;;;;4960994;28;20054;-72
2023/09/01 11:21:00;;;;;;;1.98;1.10;;;;;;;;;;4957806;28;20034;-73
2023/09/01 11:23:27;;;;;;;1.00;1.00;;;;;;;;;;4955498;28;20545;-72
2023/09/01 11:25:59;;;;;;;1.17;1.08;;;;;;;;;;4940455;28;20043;-72
2023/09/01 11:28:26;;;;;;;1.48;1.20;;;;;;;;;;4929158;28;20037;-73
2023/09/01 11:30:52;;;;;;;1.52;1.20;;;;;;;;;;4959661;28;20046;-72
2023/09/01 11:33:19;;;;;;;1.40;1.17;;;;;;;;;;4960153;28;20133;-72
2023/09/01 11:35:45;;;;;;;1.30;0.90;;;;;;;;;;4957986;28;20081;-72
2023/09/01 11:38:19;;;;;;;2.70;1.10;;;;;;;;;;4960453;28;20043;-73
2023/09/01 11:40:46;;;;;;;1.45;1.00;;;;;;;;;;4959311;28;20034;-74
2023/09/01 11:43:12;;;;;;;1.30;1.10;;;;;;;;;;4947274;28;20120;-72
2023/09/01 11:45:46;;;;;;;1.10;0.90;;;;;;;;;;4960843;28;20102;-72
2023/09/01 11:48:11;;;;;;;1.52;1.00;;;;;;;;;;4958052;28;20039;-72
2023/09/01 11:50:43;;;;;;;0.90;0.90;;;;;;;;;;4963043;28;20125;-73
2023/09/01 11:53:09;;;;;;;2.17;0.85;;;;;;;;;;4955169;28;20041;-72
2023/09/01 11:55:37;;;;;;;0.63;0.63;;;;;;;;;;4946964;28;20050;-74
2023/09/01 11:58:03;;;;;;;1.95;0.90;;;;;;;;;;4957324;28;20663;-72
2023/09/01 12:00:30;;;;;;;1.00;0.90;;;;;;;;;;4958937;28;20042;-73
2023/09/01 12:02:55;;;;;;;0.82;0.82;;;;;;;;;;4960614;28;20038;-72
2023/09/01 12:05:28;;;;;;;0.80;0.80;;;;;;;;;;4959758;28;20047;-72
2023/09/01 12:07:54;;;;;;;0.70;0.70;;;;;;;;;;4951179;28;20446;-74
2023/09/01 12:10:24;;;;;;;1.65;0.80;;;;;;;;;;4955856;28;20070;-72
2023/09/01 12:12:49;;;;;;;1.00;0.90;;;;;;;;;;4960814;28;20065;-72
2023/09/01 12:15:15;;;;;;;0.85;0.85;;;;;;;;;;4957454;28;20530;-72
2023/09/01 12:17:40;;;;;;;0.70;0.70;;;;;;;;;;4941978;28;20538;-72
2023/09/01 12:20:06;;;;;;;0.80;0.63;;;;;;;;;;4935066;28;20035;-73
2023/09/01 12:22:32;;;;;;;1.05;0.70;;;;;;;;;;4938576;28;20047;-72
2023/09/01 12:24:57;;;;;;;0.60;0.60;;;;;;;;;;4930577;28;20091;-72
2023/09/01 12:27:23;;;;;;;0.68;0.60;;;;;;;;;;4943588;28;20055;-72
2023/09/01 12:29:49;;;;;;;0.55;0.55;;;;;;;;;;4942972;28;20050;-72
2023/09/01 12:32:14;;;;;;;0.70;0.70;;;;;;;;;;4934467;28;20579;-72
2023/09/01 12:34:41;;;;;;;0.68;0.68;;;;;;;;;;4959230;28;20069;-73
2023/09/01 12:37:07;;;;;;;1.15;0.75;;;;;;;;;;4949152;28;20042;-73
2023/09/01 12:39:33;;;;;;;1.10;0.60;;;;;;;;;;4964529;28;20051;-72
2023/09/01 12:41:58;;;;;;;1.48;0.70;;;;;;;;;;4963552;28;20065;-73
2023/09/01 12:44:24;;;;;;;0.88;0.63;;;;;;;;;;4961917;28;20034;-72
2023/09/01 12:46:50;;;;;;;0.60;0.60;;;;;;;;;;4963408;28;20431;-72
2023/09/01 12:49:15;;;;;;;0.55;0.50;;;;;;;;;;4959913;28;20043;-72
2023/09/01 12:51:43;;;;;;;1.20;0.50;;;;;;;;;;4948571;28;20109;-72
2023/09/01 12:54:09;;;;;;;0.60;0.52;;;;;;;;;;4961320;28;20039;-72
2023/09/01 12:56:34;;;;;;;0.60;0.50;;;;;;;;;;4959886;28;20038;-72
2023/09/01 12:58:59;;;;;;;0.60;0.47;;;;;;;;;;4960693;28;20043;-73
2023/09/01 13:01:25;;;;;;;0.85;0.82;;;;;;;;;;4958769;28;20506;-72
2023/09/01 13:03:50;;;;;;;0.73;0.73;;;;;;;;;;4957307;28;20080;-75
2023/09/01 13:06:15;;;;;;;0.60;0.60;;;;;;;;;;4951046;28;20133;-75
2023/09/01 13:08:41;;;;;;;1.42;0.70;;;;;;;;;;4967953;28;20038;-75
2023/09/01 13:11:10;;;;;;;0.90;0.63;;;;;;;;;;4948091;28;20049;-75
2023/09/01 13:13:36;;;;;;;0.85;0.80;;;;;;;;;;4951715;28;20048;-75
2023/09/01 13:16:01;;;;;;;0.73;0.60;;;;;;;;;;4958850;28;20588;-74
2023/09/01 13:18:27;;;;;;;1.23;0.90;;;;;;;;;;4961759;28;20046;-75
2023/09/01 13:20:52;;;;;;;2.00;0.98;;;;;;;;;;4952213;28;20041;-75
2023/09/01 13:23:18;;;;;;;0.88;0.68;;;;;;;;;;4961110;28;20602;-75
2023/09/01 13:25:43;;;;;;;0.65;0.65;;;;;;;;;;4952096;28;20030;-75
2023/09/01 13:28:08;;;;;;;1.27;0.70;;;;;;;;;;4956903;28;20031;-74
2023/09/01 13:30:36;;;;;;;0.68;0.68;;;;;;;;;;4964802;28;20039;-74
2023/09/01 13:33:02;;;;;;;0.50;0.50;;;;;;;;;;4960450;28;20035;-74
2023/09/01 13:35:28;;;;;;;0.77;0.70;;;;;;;;;;4951824;28;20497;-74
2023/09/01 13:37:54;;;;;;;0.50;0.50;;;;;;;;;;4947408;28;20042;-74
2023/09/01 13:40:19;;;;;;;0.90;0.70;;;;;;;;;;4964710;28;20034;-74
2023/09/01 13:42:45;;;;;;;0.93;0.70;;;;;;;;;;4962852;28;20042;-74
2023/09/01 13:45:10;;;;;;;0.90;0.90;;;;;;;;;;4953366;28;20042;-74
2023/09/01 13:47:35;;;;;;;1.50;1.00;;;;;;;;;;4959326;28;20039;-74
2023/09/01 13:50:01;;;;;;;1.02;0.90;;;;;;;;;;4938190;28;20030;-74
2023/09/01 13:52:26;;;;;;;1.60;1.00;;;;;;;;;;4962846;28;20046;-74
2023/09/01 13:54:53;;;;;;;0.60;0.60;;;;;;;;;;4960247;28;20594;-74
2023/09/01 13:57:19;;;;;;;1.17;0.90;;;;;;;;;;4961689;28;20137;-74
2023/09/01 13:59:44;;;;;;;0.90;0.90;;;;;;;;;;4960159;28;20430;-73
2023/09/01 14:02:10;;;;;;;0.80;0.80;;;;;;;;;;4961387;28;20042;-73
2023/09/01 14:04:35;;;;;;;0.70;0.70;;;;;;;;;;4951673;28;20041;-73
2023/09/01 14:07:02;;;;;;;0.60;0.60;;;;;;;;;;4964007;28;20553;-73
2023/09/01 14:09:27;;;;;;;0.73;0.73;;;;;;;;;;4961777;28;20575;-73
2023/09/01 14:11:53;;;;;;;0.80;0.80;;;;;;;;;;4935041;28;20118;-73
2023/09/01 14:14:20;;;;;;;1.00;0.73;;;;;;;;;;4943691;28;21851;-73
2023/09/01 14:16:46;;;;;;;0.90;0.90;;;;;;;;;;4939309;28;20134;-75
2023/09/01 14:19:11;;;;;;;0.90;0.90;;;;;;;;;;4935515;28;20859;-73
2023/09/01 14:21:37;;;;;;;0.80;0.80;;;;;;;;;;4943923;28;20042;-73
2023/09/01 14:24:02;;;;;;;0.70;0.70;;;;;;;;;;4940805;28;20035;-75
2023/09/01 14:26:28;;;;;;;1.00;0.95;;;;;;;;;;4939120;28;20053;-75
2023/09/01 14:28:53;;;;;;;0.90;0.90;;;;;;;;;;4943227;28;20046;-75
2023/09/01 14:31:19;;;;;;;1.15;0.80;;;;;;;;;;4935210;28;20050;-73
2023/09/01 14:33:44;;;;;;;1.15;0.80;;;;;;;;;;4942627;28;20602;-72
2023/09/01 14:36:10;;;;;;;0.80;0.80;;;;;;;;;;4941699;28;20565;-73
2023/09/01 14:38:37;;;;;;;3.15;0.93;;;;;;;;;;4941849;28;20051;-73
2023/09/01 14:41:02;;;;;;;1.35;1.10;;;;;;;;;;4942447;28;20439;-73
2023/09/01 14:43:28;;;;;;;0.85;0.85;;;;;;;;;;4944055;28;20027;-75